createdAt,value
2023-03-03T00:00:51.774Z,101041.91
2023-03-03T00:03:25.357Z,101037.84
2023-03-03T00:05:53.082Z,101037.84
2023-03-03T00:08:21.709Z,101039.00
2023-03-03T00:10:49.108Z,101036.25
2023-03-03T00:13:19.583Z,101037.94
2023-03-03T00:15:47.203Z,101036.63
2023-03-03T00:18:36.713Z,101040.66
2023-03-03T00:21:15.368Z,101040.13
2023-03-03T00:23:43.366Z,101037.38
2023-03-03T00:26:26.459Z,101027.47
2023-03-03T00:28:54.688Z,101032.38
2023-03-03T00:31:35.670Z,101035.13
2023-03-03T00:34:27.407Z,101031.63
2023-03-03T00:36:56.973Z,101029.41
2023-03-03T00:39:35.633Z,101028.88
2023-03-03T00:42:13.424Z,101022.69
2023-03-03T00:44:46.074Z,101023.47
2023-03-03T00:47:38.088Z,101021.88
2023-03-03T00:50:11.463Z,101021.63
2023-03-03T00:52:45.751Z,101024.72
2023-03-03T00:55:13.328Z,101012.28
2023-03-03T00:57:40.612Z,101015.25
2023-03-03T01:00:15.611Z,101020.09
2023-03-03T01:02:46.464Z,101016.53
2023-03-03T01:05:16.024Z,101023.00
2023-03-03T01:07:43.715Z,101017.28
2023-03-03T01:10:11.685Z,101011.63
2023-03-03T01:12:39.483Z,101015.19
2023-03-03T01:15:08.822Z,101017.91
2023-03-03T01:17:36.961Z,101010.34
2023-03-03T01:20:04.708Z,101012.53
2023-03-03T01:22:32.138Z,101013.91
2023-03-03T01:25:00.322Z,101011.53
2023-03-03T01:27:28.661Z,101009.03
2023-03-03T01:29:56.706Z,101002.34
2023-03-03T01:32:25.417Z,100996.63
2023-03-03T01:34:53.361Z,100996.09
2023-03-03T01:37:21.405Z,100985.81
2023-03-03T01:39:53.187Z,100988.78
2023-03-03T01:42:20.991Z,100985.56
2023-03-03T01:44:48.434Z,100983.41
2023-03-03T01:47:33.923Z,100983.66
2023-03-03T01:50:11.165Z,100981.53
2023-03-03T01:52:43.188Z,100977.72
2023-03-03T01:55:29.202Z,100979.06
2023-03-03T01:58:03.878Z,100973.69
2023-03-03T02:00:33.179Z,100968.53
2023-03-03T02:03:00.967Z,100967.50
2023-03-03T02:05:29.121Z,100971.00
2023-03-03T02:07:56.604Z,100961.59
2023-03-03T02:10:24.008Z,100956.53
2023-03-03T02:12:54.665Z,100957.28
2023-03-03T02:15:35.990Z,100947.03
2023-03-03T02:18:09.440Z,100947.88
2023-03-03T02:21:01.818Z,100945.25
2023-03-03T02:23:38.367Z,100946.59
2023-03-03T02:26:20.607Z,100948.16
2023-03-03T02:28:48.950Z,100946.03
2023-03-03T02:31:20.788Z,100945.53
2023-03-03T02:33:51.250Z,100941.75
2023-03-03T02:36:24.579Z,100941.75
2023-03-03T02:39:16.535Z,100942.84
2023-03-03T02:42:04.827Z,100936.28
2023-03-03T02:44:38.614Z,100930.13
2023-03-03T02:47:05.915Z,100927.41
2023-03-03T02:49:35.568Z,100926.34
2023-03-03T02:52:07.099Z,100924.47
2023-03-03T02:54:34.701Z,100923.91
2023-03-03T02:57:06.182Z,100928.25
2023-03-03T02:59:33.548Z,100923.69
2023-03-03T03:02:08.864Z,100909.69
2023-03-03T03:04:36.278Z,100907.00
2023-03-03T03:07:04.769Z,100902.69
2023-03-03T03:09:34.001Z,100911.84
2023-03-03T03:12:02.556Z,100900.75
2023-03-03T03:14:32.465Z,100908.88
2023-03-03T03:16:59.874Z,100903.72
2023-03-03T03:19:29.240Z,100896.72
2023-03-03T03:22:01.301Z,100905.09
2023-03-03T03:24:30.130Z,100895.38
2023-03-03T03:27:05.666Z,100904.56
2023-03-03T03:29:33.419Z,100894.06
2023-03-03T03:32:00.868Z,100894.34
2023-03-03T03:34:28.287Z,100888.94
2023-03-03T03:36:56.655Z,100891.09
2023-03-03T03:39:28.282Z,100894.63
2023-03-03T03:41:56.483Z,100895.16
2023-03-03T03:44:25.187Z,100900.53
2023-03-03T03:46:55.468Z,100900.56
2023-03-03T03:49:22.888Z,100897.31
2023-03-03T03:51:52.073Z,100898.44
2023-03-03T03:54:22.633Z,100887.16
2023-03-03T03:56:50.561Z,100890.63
2023-03-03T03:59:17.947Z,100888.47
2023-03-03T04:01:45.279Z,100892.25
2023-03-03T04:04:12.634Z,100894.13
2023-03-03T04:06:40.549Z,100892.47
2023-03-03T04:09:07.980Z,100890.56
2023-03-03T04:11:35.723Z,100894.13
2023-03-03T04:14:05.466Z,100893.34
2023-03-03T04:16:33.626Z,100890.91
2023-03-03T04:19:01.052Z,100885.56
2023-03-03T04:21:28.731Z,100892.97
2023-03-03T04:23:59.008Z,100891.38
2023-03-03T04:26:28.666Z,100886.56
2023-03-03T04:28:55.955Z,100878.25
2023-03-03T04:31:27.976Z,100894.13
2023-03-03T04:33:55.614Z,100885.78
2023-03-03T04:36:24.487Z,100883.91
2023-03-03T04:38:51.971Z,100888.50
2023-03-03T04:41:19.767Z,100888.78
2023-03-03T04:43:47.404Z,100890.41
2023-03-03T04:46:14.865Z,100888.00
2023-03-03T04:48:42.404Z,100888.28
2023-03-03T04:51:10.964Z,100888.25
2023-03-03T04:53:38.815Z,100880.69
2023-03-03T04:56:08.190Z,100878.00
2023-03-03T04:58:37.188Z,100876.66
2023-03-03T05:01:04.732Z,100884.19
2023-03-03T05:03:33.098Z,100883.69
2023-03-03T05:06:00.793Z,100880.19
2023-03-03T05:08:28.068Z,100882.84
2023-03-03T05:10:55.457Z,100875.56
2023-03-03T05:13:22.886Z,100879.88
2023-03-03T05:15:55.581Z,100868.81
2023-03-03T05:18:29.549Z,100867.75
2023-03-03T05:20:57.034Z,100868.31
2023-03-03T05:23:24.903Z,100866.94
2023-03-03T05:25:52.389Z,100873.38
2023-03-03T05:28:19.782Z,100884.53
2023-03-03T05:30:47.105Z,100882.41
2023-03-03T05:33:16.290Z,100887.78
2023-03-03T05:35:44.362Z,100889.94
2023-03-03T05:38:11.734Z,100884.84
2023-03-03T05:40:39.611Z,100891.84
2023-03-03T05:43:07.263Z,100895.06
2023-03-03T05:45:35.396Z,100890.75
2023-03-03T05:48:04.087Z,100892.94
2023-03-03T05:50:32.202Z,100889.94
2023-03-03T05:52:59.674Z,100894.50
2023-03-03T05:55:27.159Z,100902.59
2023-03-03T05:57:54.950Z,100906.63
2023-03-03T06:00:22.833Z,100905.28
2023-03-03T06:02:53.207Z,100908.78
2023-03-03T06:05:20.603Z,100912.00
2023-03-03T06:07:47.897Z,100910.63
2023-03-03T06:10:15.197Z,100907.63
2023-03-03T06:12:46.582Z,100911.91
2023-03-03T06:15:13.987Z,100914.31
2023-03-03T06:17:41.286Z,100914.31
2023-03-03T06:20:09.247Z,100919.19
2023-03-03T06:22:36.537Z,100912.09
2023-03-03T06:25:04.191Z,100914.19
2023-03-03T06:27:31.451Z,100915.97
2023-03-03T06:29:58.776Z,100918.88
2023-03-03T06:32:26.352Z,100920.53
2023-03-03T06:34:53.817Z,100912.69
2023-03-03T06:37:21.140Z,100916.75
2023-03-03T06:39:48.516Z,100918.22
2023-03-03T06:42:15.752Z,100906.53
2023-03-03T06:44:43.091Z,100911.34
2023-03-03T06:47:10.393Z,100905.63
2023-03-03T06:49:37.677Z,100910.91
2023-03-03T06:52:19.026Z,100909.50
2023-03-03T06:54:46.384Z,100913.75
2023-03-03T06:57:32.036Z,100911.56
2023-03-03T07:00:12.705Z,100921.31
2023-03-03T07:02:40.237Z,100916.84
2023-03-03T07:05:15.633Z,100913.47
2023-03-03T07:07:43.298Z,100918.56
2023-03-03T07:10:23.914Z,100929.91
2023-03-03T07:12:51.188Z,100924.63
2023-03-03T07:15:24.605Z,100928.34
2023-03-03T07:17:58.210Z,100927.59
2023-03-03T07:20:40.084Z,100932.66
2023-03-03T07:23:42.696Z,100931.97
2023-03-03T07:26:13.492Z,100936.06
2023-03-03T07:28:43.372Z,100930.13
2023-03-03T07:31:38.362Z,100932.47
2023-03-03T07:34:21.755Z,100929.91
2023-03-03T07:36:53.581Z,100937.53
2023-03-03T07:39:40.710Z,100941.22
2023-03-03T07:42:28.478Z,100939.41
2023-03-03T07:45:29.120Z,100935.78
2023-03-03T07:48:19.664Z,100935.22
2023-03-03T07:50:49.146Z,100935.50
2023-03-03T07:53:27.654Z,100934.00
2023-03-03T07:55:55.150Z,100933.88
2023-03-03T07:58:30.704Z,100932.31
2023-03-03T08:01:28.612Z,100931.25
2023-03-03T08:03:57.004Z,100934.88
2023-03-03T08:06:36.344Z,100934.66
2023-03-03T08:09:09.831Z,100938.34
2023-03-03T08:12:00.965Z,100934.47
2023-03-03T08:14:33.921Z,100937.94
2023-03-03T08:17:02.597Z,100932.19
2023-03-03T08:19:31.128Z,100935.78
2023-03-03T08:22:12.165Z,100941.13
2023-03-03T08:24:39.507Z,100938.16
2023-03-03T08:27:06.911Z,100936.00
2023-03-03T08:29:34.304Z,100945.84
2023-03-03T08:32:01.698Z,100936.97
2023-03-03T08:34:29.121Z,100934.81
2023-03-03T08:36:58.470Z,100944.75
2023-03-03T08:39:25.880Z,100939.72
2023-03-03T08:41:53.210Z,100933.75
2023-03-03T08:44:20.742Z,100947.09
2023-03-03T08:46:48.114Z,100946.28
2023-03-03T08:49:15.753Z,100939.69
2023-03-03T08:51:43.159Z,100934.69
2023-03-03T08:54:10.636Z,100944.59
2023-03-03T08:56:38.005Z,100939.47
2023-03-03T08:59:05.404Z,100945.53
2023-03-03T09:01:33.177Z,100944.63
2023-03-03T09:04:00.617Z,100939.94
2023-03-03T09:06:27.898Z,100947.97
2023-03-03T09:08:55.354Z,100942.22
2023-03-03T09:11:27.589Z,100944.03
2023-03-03T09:14:06.624Z,100941.38
2023-03-03T09:16:41.108Z,100941.94
2023-03-03T09:19:23.100Z,100942.44
2023-03-03T09:21:54.732Z,100952.81
2023-03-03T09:24:30.015Z,100941.13
2023-03-03T09:26:59.056Z,100940.69
2023-03-03T09:29:29.316Z,100944.84
2023-03-03T09:31:59.035Z,100946.78
2023-03-03T09:34:43.245Z,100940.00
2023-03-03T09:37:22.495Z,100945.66
2023-03-03T09:39:52.292Z,100938.16
2023-03-03T09:42:26.077Z,100945.91
2023-03-03T09:45:12.102Z,100946.03
2023-03-03T09:48:08.391Z,100942.63
2023-03-03T09:51:21.562Z,100947.44
2023-03-03T09:54:24.674Z,100944.72
2023-03-03T09:57:05.570Z,100950.53
2023-03-03T10:00:00.935Z,100957.88
2023-03-03T10:02:51.856Z,100952.22
2023-03-03T10:05:39.074Z,100955.28
2023-03-03T10:08:31.102Z,100954.25
2023-03-03T10:11:05.112Z,100959.75
2023-03-03T10:14:13.027Z,100959.50
2023-03-03T10:17:12.610Z,100965.59
2023-03-03T10:20:00.183Z,100971.69
2023-03-03T10:22:42.301Z,100969.75
2023-03-03T10:25:47.755Z,100964.69
2023-03-03T10:28:30.265Z,100968.59
2023-03-03T10:31:17.235Z,100964.97
2023-03-03T10:34:23.653Z,100962.50
2023-03-03T10:37:15.476Z,100957.50
2023-03-03T10:39:42.785Z,100959.25
2023-03-03T10:42:22.446Z,100959.44
2023-03-03T10:45:18.205Z,100960.97
2023-03-03T10:48:04.488Z,100970.03
2023-03-03T10:50:56.696Z,100966.25
2023-03-03T10:53:37.646Z,100968.75
2023-03-03T10:56:14.568Z,100966.94
2023-03-03T10:59:06.425Z,100969.44
2023-03-03T11:01:49.964Z,100958.28
2023-03-03T11:04:21.917Z,100961.47
2023-03-03T11:07:03.665Z,100966.59
2023-03-03T11:09:37.857Z,100965.13
2023-03-03T11:12:23.613Z,100966.16
2023-03-03T11:14:56.594Z,100964.16
2023-03-03T11:17:47.922Z,100958.81
2023-03-03T11:20:46.156Z,100957.97
2023-03-03T11:23:37.988Z,100968.34
2023-03-03T11:26:11.364Z,100953.59
2023-03-03T11:29:00.602Z,100961.13
2023-03-03T11:32:18.403Z,100965.28
2023-03-03T11:35:13.444Z,100961.00
2023-03-03T11:38:17.398Z,100947.13
2023-03-03T11:40:56.017Z,100946.69
2023-03-03T11:43:41.625Z,100945.34
2023-03-03T11:46:20.534Z,100938.13
2023-03-03T11:48:53.792Z,100942.13
2023-03-03T11:51:35.802Z,100937.97
2023-03-03T11:54:12.569Z,100930.78
2023-03-03T11:56:42.719Z,100932.31
2023-03-03T11:59:18.936Z,100933.19
2023-03-03T12:01:54.569Z,100930.38
2023-03-03T12:04:40.685Z,100933.44
2023-03-03T12:07:20.151Z,100930.56
2023-03-03T12:10:09.201Z,100925.22
2023-03-03T12:12:42.803Z,100925.19
2023-03-03T12:15:22.155Z,100924.09
2023-03-03T12:17:55.287Z,100924.44
2023-03-03T12:20:31.288Z,100920.88
2023-03-03T12:23:25.531Z,100915.31
2023-03-03T12:26:11.321Z,100920.31
2023-03-03T12:28:44.995Z,100926.28
2023-03-03T12:31:42.636Z,100921.53
2023-03-03T12:34:33.676Z,100916.81
2023-03-03T12:37:36.976Z,100919.25
2023-03-03T12:40:21.514Z,100910.22
2023-03-03T12:43:07.366Z,100912.09
2023-03-03T12:45:34.736Z,100908.75
2023-03-03T12:48:24.374Z,100912.72
2023-03-03T12:51:00.837Z,100911.00
2023-03-03T12:53:46.133Z,100912.84
2023-03-03T12:56:26.236Z,100917.34
2023-03-03T12:59:11.487Z,100913.50
2023-03-03T13:02:06.630Z,100907.63
2023-03-03T13:04:44.500Z,100904.03
2023-03-03T13:07:28.993Z,100904.00
2023-03-03T13:10:05.332Z,100902.75
2023-03-03T13:12:39.789Z,100895.59
2023-03-03T13:15:15.939Z,100894.22
2023-03-03T13:18:10.708Z,100897.81
2023-03-03T13:21:13.094Z,100895.22
2023-03-03T13:23:48.544Z,100890.75
2023-03-03T13:26:25.005Z,100891.75
2023-03-03T13:29:28.496Z,100902.59
2023-03-03T13:31:59.850Z,100889.88
2023-03-03T13:34:49.224Z,100895.94
2023-03-03T13:37:24.652Z,100896.13
2023-03-03T13:40:15.017Z,100894.44
2023-03-03T13:42:49.140Z,100886.47
2023-03-03T13:45:30.687Z,100890.38
2023-03-03T13:48:04.211Z,100883.13
2023-03-03T13:50:56.989Z,100890.16
2023-03-03T13:53:27.438Z,100887.72
2023-03-03T13:56:03.884Z,100883.31
2023-03-03T13:58:45.502Z,100882.44
2023-03-03T14:01:23.566Z,100880.59
2023-03-03T14:04:00.763Z,100881.75
2023-03-03T14:06:29.364Z,100877.69
2023-03-03T14:09:15.462Z,100876.78
2023-03-03T14:12:04.055Z,100870.19
2023-03-03T14:14:47.389Z,100881.06
2023-03-03T14:17:26.985Z,100875.16
2023-03-03T14:20:04.996Z,100871.22
2023-03-03T14:22:53.757Z,100868.34
2023-03-03T14:25:21.198Z,100870.44
2023-03-03T14:27:48.450Z,100875.84
2023-03-03T14:30:29.508Z,100868.97
2023-03-03T14:33:09.401Z,100867.88
2023-03-03T14:35:57.022Z,100872.81
2023-03-03T14:38:37.661Z,100866.28
2023-03-03T14:41:15.633Z,100868.00
2023-03-03T14:44:05.576Z,100863.69
2023-03-03T14:46:44.983Z,100865.28
2023-03-03T14:49:30.728Z,100865.06
2023-03-03T14:52:11.930Z,100866.66
2023-03-03T14:54:42.914Z,100865.63
2023-03-03T14:57:16.122Z,100868.94
2023-03-03T15:00:20.507Z,100869.63
2023-03-03T15:02:51.808Z,100869.19
2023-03-03T15:05:19.432Z,100867.94
2023-03-03T15:07:56.776Z,100872.03
2023-03-03T15:10:34.932Z,100863.25
2023-03-03T15:13:31.293Z,100867.38
2023-03-03T15:16:31.017Z,100869.28
2023-03-03T15:19:00.426Z,100867.22
2023-03-03T15:21:35.344Z,100867.91
2023-03-03T15:24:13.577Z,100869.84
2023-03-03T15:26:56.845Z,100869.06
2023-03-03T15:30:02.124Z,100864.63
2023-03-03T15:32:40.531Z,100855.72
2023-03-03T15:35:14.155Z,100848.06
2023-03-03T15:38:09.769Z,100854.00
2023-03-03T15:40:44.924Z,100852.41
2023-03-03T15:43:30.506Z,100859.25
2023-03-03T15:46:00.930Z,100850.47
2023-03-03T15:48:53.994Z,100852.06
2023-03-03T15:52:06.328Z,100842.38
2023-03-03T15:54:48.332Z,100850.13
2023-03-03T15:57:44.354Z,100854.56
2023-03-03T16:00:30.050Z,100847.03
2023-03-03T16:03:21.661Z,100852.38
2023-03-03T16:06:18.564Z,100852.06
2023-03-03T16:09:00.576Z,100852.25
2023-03-03T16:11:47.428Z,100848.69
2023-03-03T16:14:40.916Z,100846.63
2023-03-03T16:17:23.054Z,100851.63
2023-03-03T16:19:53.550Z,100851.13
2023-03-03T16:22:20.797Z,100854.88
2023-03-03T16:25:06.834Z,100857.50
2023-03-03T16:27:42.961Z,100858.50
2023-03-03T16:30:33.143Z,100861.44
2023-03-03T16:33:24.363Z,100856.59
2023-03-03T16:35:57.892Z,100860.31
2023-03-03T16:38:38.408Z,100869.84
2023-03-03T16:41:18.907Z,100877.97
2023-03-03T16:44:11.535Z,100880.50
2023-03-03T16:46:42.385Z,100883.41
2023-03-03T16:49:40.349Z,100887.16
2023-03-03T16:52:12.775Z,100891.34
2023-03-03T16:54:59.934Z,100892.72
2023-03-03T16:57:29.894Z,100890.69
2023-03-03T17:00:06.683Z,100903.28
2023-03-03T17:02:52.650Z,100904.13
2023-03-03T17:05:57.942Z,100908.13
2023-03-03T17:08:52.863Z,100911.69
2023-03-03T17:11:41.141Z,100905.28
2023-03-03T17:14:17.144Z,100910.13
2023-03-03T17:16:53.445Z,100911.78
2023-03-03T17:19:21.569Z,100921.41
2023-03-03T17:22:07.871Z,100923.69
2023-03-03T17:25:00.763Z,100923.06
2023-03-03T17:27:36.683Z,100927.88
2023-03-03T17:30:32.169Z,100928.53
2023-03-03T17:33:13.689Z,100927.53
2023-03-03T17:35:59.004Z,100935.09
2023-03-03T17:38:32.058Z,100940.38
2023-03-03T17:41:09.198Z,100944.56
2023-03-03T17:43:43.317Z,100940.72
2023-03-03T17:46:18.674Z,100948.13
2023-03-03T17:49:18.353Z,100953.06
2023-03-03T17:52:07.366Z,100955.16
2023-03-03T17:54:53.394Z,100943.94
2023-03-03T17:57:41.947Z,100959.50
2023-03-03T18:00:32.211Z,100958.03
2023-03-03T18:03:34.928Z,100956.13
2023-03-03T18:06:18.670Z,100964.59
2023-03-03T18:09:13.678Z,100966.88
2023-03-03T18:12:01.004Z,100980.63
2023-03-03T18:15:03.525Z,100981.59
2023-03-03T18:18:05.338Z,100980.47
2023-03-03T18:20:59.852Z,100991.84
2023-03-03T18:23:32.103Z,100991.50
2023-03-03T18:26:23.884Z,100997.41
2023-03-03T18:28:52.682Z,100989.53
2023-03-03T18:31:24.472Z,100990.03
2023-03-03T18:34:00.706Z,100987.47
2023-03-03T18:36:27.967Z,100994.13
2023-03-03T18:38:57.587Z,100996.50
2023-03-03T18:41:30.595Z,101003.19
2023-03-03T18:44:00.934Z,101001.28
2023-03-03T18:46:28.194Z,101008.63
2023-03-03T18:49:00.710Z,101003.00
2023-03-03T18:51:34.254Z,100998.38
2023-03-03T18:54:31.342Z,101000.75
2023-03-03T18:57:03.845Z,101008.38
2023-03-03T18:59:34.120Z,101009.72
2023-03-03T19:02:13.338Z,101012.94
2023-03-03T19:04:49.136Z,101008.34
2023-03-03T19:07:27.601Z,101008.34
2023-03-03T19:10:07.769Z,101008.13
2023-03-03T19:12:58.933Z,101016.59
2023-03-03T19:15:29.333Z,101020.72
2023-03-03T19:18:02.542Z,101020.38
2023-03-03T19:20:46.230Z,101028.34
2023-03-03T19:23:34.284Z,101035.00
2023-03-03T19:26:25.910Z,101030.69
2023-03-03T19:29:22.761Z,101033.53
2023-03-03T19:32:08.963Z,101042.59
2023-03-03T19:34:50.541Z,101046.91
2023-03-03T19:37:58.264Z,101055.91
2023-03-03T19:40:37.172Z,101056.81
2023-03-03T19:43:23.352Z,101063.97
2023-03-03T19:46:00.051Z,101066.78
2023-03-03T19:48:36.581Z,101072.16
2023-03-03T19:51:03.902Z,101073.97
2023-03-03T19:53:45.416Z,101080.00
2023-03-03T19:56:31.043Z,101079.78
2023-03-03T19:59:06.942Z,101082.91
2023-03-03T20:01:46.956Z,101089.34
2023-03-03T20:04:46.842Z,101093.97
2023-03-03T20:07:55.208Z,101092.88
2023-03-03T20:10:39.685Z,101097.47
2023-03-03T20:13:15.673Z,101094.38
2023-03-03T20:16:15.073Z,101103.31
2023-03-03T20:19:02.513Z,101102.09
2023-03-03T20:21:32.478Z,101092.66
2023-03-03T20:24:23.664Z,101106.53
2023-03-03T20:26:59.872Z,101104.53
2023-03-03T20:29:45.841Z,101107.81
2023-03-03T20:32:35.313Z,101112.25
2023-03-03T20:35:23.345Z,101115.66
2023-03-03T20:38:29.791Z,101113.88
2023-03-03T20:41:59.000Z,101114.97
2023-03-03T20:44:52.090Z,101120.00
2023-03-03T20:47:40.654Z,101119.78
2023-03-03T20:50:39.744Z,101128.13
2023-03-03T20:53:36.804Z,101124.38
2023-03-03T20:56:10.029Z,101132.22
2023-03-03T20:58:51.259Z,101126.59
2023-03-03T21:01:59.177Z,101137.66
2023-03-03T21:04:30.324Z,101136.03
2023-03-03T21:06:59.124Z,101146.72
2023-03-03T21:09:33.261Z,101144.91
2023-03-03T21:12:04.599Z,101140.28
2023-03-03T21:14:38.581Z,101150.41
2023-03-03T21:17:26.972Z,101145.88
2023-03-03T21:19:54.371Z,101153.59
2023-03-03T21:22:21.975Z,101151.69
2023-03-03T21:24:54.796Z,101153.53
2023-03-03T21:27:33.645Z,101153.75
2023-03-03T21:30:10.546Z,101155.34
2023-03-03T21:32:46.016Z,101163.56
2023-03-03T21:35:15.697Z,101159.53
2023-03-03T21:37:54.185Z,101160.34
2023-03-03T21:40:27.461Z,101158.63
2023-03-03T21:42:57.855Z,101157.47
2023-03-03T21:45:26.132Z,101158.47
2023-03-03T21:47:55.099Z,101159.09
2023-03-03T21:50:24.592Z,101155.84
2023-03-03T21:52:51.918Z,101153.75
2023-03-03T21:55:19.282Z,101163.56
2023-03-03T21:57:46.588Z,101162.25
2023-03-03T22:00:14.261Z,101158.63
2023-03-03T22:02:43.525Z,101164.59
2023-03-03T22:05:10.933Z,101159.34
2023-03-03T22:07:38.272Z,101161.25
2023-03-03T22:10:07.456Z,101167.63
2023-03-03T22:12:34.804Z,101163.22
2023-03-03T22:15:02.148Z,101164.34
2023-03-03T22:17:31.385Z,101163.81
2023-03-03T22:19:59.717Z,101162.81
2023-03-03T22:22:27.006Z,101173.38
2023-03-03T22:24:54.423Z,101160.09
2023-03-03T22:27:21.720Z,101168.97
2023-03-03T22:29:49.058Z,101165.00
2023-03-03T22:32:16.489Z,101170.88
2023-03-03T22:34:44.210Z,101167.94
2023-03-03T22:37:11.505Z,101168.97
2023-03-03T22:39:38.845Z,101173.06
2023-03-03T22:42:06.128Z,101166.13
2023-03-03T22:44:33.503Z,101167.41
2023-03-03T22:47:00.774Z,101167.22
2023-03-03T22:49:28.282Z,101164.78
2023-03-03T22:51:58.622Z,101174.47
2023-03-03T22:54:26.011Z,101173.38
2023-03-03T22:56:53.277Z,101173.38
2023-03-03T22:59:20.580Z,101180.19
2023-03-03T23:01:47.911Z,101175.34
2023-03-03T23:04:15.407Z,101182.41
2023-03-03T23:06:47.167Z,101174.91
2023-03-03T23:09:14.822Z,101176.03
2023-03-03T23:11:42.177Z,101177.00
2023-03-03T23:14:09.527Z,101175.09
2023-03-03T23:16:36.847Z,101174.91
2023-03-03T23:19:04.180Z,101178.41
2023-03-03T23:21:31.598Z,101173.19
2023-03-03T23:24:01.545Z,101177.22
2023-03-03T23:26:28.815Z,101175.97
2023-03-03T23:28:56.423Z,101174.16
2023-03-03T23:31:25.566Z,101180.91
2023-03-03T23:33:53.006Z,101182.50
2023-03-03T23:36:20.303Z,101183.97
2023-03-03T23:38:48.011Z,101184.03
2023-03-03T23:41:15.269Z,101182.94
2023-03-03T23:43:42.585Z,101184.69
2023-03-03T23:46:09.932Z,101191.88
2023-03-03T23:48:37.329Z,101175.09
2023-03-03T23:51:04.720Z,101179.28
2023-03-03T23:53:32.104Z,101175.09
2023-03-03T23:55:59.343Z,101174.81
2023-03-03T23:58:26.656Z,101173.38
